Flight Track Log - Related Links

Times and Time Zones

All times are in EST time to prevent confusion due to time zone crossing. See the SWA303 flight status page for this flight to view local times or setup timezone preferences in your user account.

Time Position Orientation Groundspeed Altitude Reporting Facility
EST Latitude Longitude Course Direction KTS MPH feet Rate Location/Type
Thu 10:39:03 PM 41.7656 -87.8025 174° South 193 222 3,500  Level Chicago Center
Thu 10:40:05 PM 41.6992 -87.8158 189° South 248 285 6,500 3,366 Climbing Chicago Center
Thu 10:41:06 PM 41.6172 -87.7889 166° South 292 336 10,400 3,295 Climbing Chicago Center
Thu 10:42:07 PM 41.5183 -87.7578 167° South 366 421 13,200 3,073 Climbing Chicago Center
Thu 10:43:09 PM 41.4094 -87.7250 167° South 393 452 16,700 3,073 Climbing Chicago Center
Thu 10:44:00 PM 41.2594 -87.4436 174° South  Level Estimated
Thu 10:44:10 PM 41.2928 -87.7258 180° South 413 475 19,500  Level Chicago Center
Thu 10:45:11 PM 41.1689 -87.7219 179° South 437 503 22,000 1,707 Climbing Chicago Center
Thu 10:46:13 PM 41.0378 -87.7036 174° South 471 542 23,000 488 Climbing Chicago Center
Thu 10:47:14 PM 40.8803 -87.6822 174° South 472 543 23,000 -246 Level Chicago Center
Thu 10:48:15 PM 40.7525 -87.6642 174° South 465 535 22,500 -984 Descending Chicago Center
Thu 10:49:16 PM 40.6258 -87.6472 174° South 460 529 21,000 -732 Descending Chicago Center
Thu 10:50:18 PM 40.5003 -87.6300 174° South 455 524 21,000  Level Chicago Center
Thu 10:51:19 PM 40.3758 -87.6147 175° South 452 520 21,000  Level Chicago Center
Thu 10:52:20 PM 40.2514 -87.6069 177° South 450 518 21,000  Level Chicago Center
Thu 10:53:21 PM 40.1236 -87.5764 170° South 476 548 21,000  Level Chicago Center
Thu 10:54:09 PM 40.0272 -87.4911 146° Southeast 503 579 21,000  Level Indianapolis Center
Thu 10:55:10 PM 39.9103 -87.3853 145° Southeast 513 590 21,000  Level Indianapolis Center
Thu 10:56:11 PM 39.7953 -87.2758 144° Southeast 516 594 21,000  Level Indianapolis Center
Thu 10:57:12 PM 39.6808 -87.1700 145° Southeast 512 589 21,000  Level Indianapolis Center
Thu 10:58:14 PM 39.5425 -87.0453 145° Southeast 510 587 21,000  Level Indianapolis Center
Thu 10:59:15 PM 39.4281 -86.9417 145° Southeast 508 585 21,000  Level Indianapolis Center
Thu 11:00:16 PM 39.3150 -86.8389 145° Southeast 504 580 21,000  Level Indianapolis Center
Thu 11:01:17 PM 39.2025 -86.7378 145° Southeast 500 575 21,000  Level Indianapolis Center
Thu 11:02:18 PM 39.0972 -86.6431 145° Southeast 497 572 21,000 -49 Level Indianapolis Center
Thu 11:03:19 PM 38.9803 -86.5386 145° Southeast 491 565 20,900 -1,082 Descending Indianapolis Center
Thu 11:04:20 PM 38.8725 -86.4439 146° Southeast 487 560 18,800 -1,756 Descending Indianapolis Center
Thu 11:05:22 PM 38.7472 -86.3319 145° Southeast 460 529 17,300 -1,415 Descending Indianapolis Center
Thu 11:06:23 PM 38.6594 -86.2375 140° Southeast 418 481 15,900 -1,525 Descending Indianapolis Center
Thu 11:07:24 PM 38.5756 -86.1381 137° Southeast 406 467 14,200 -1,672 Descending Indianapolis Center
Thu 11:08:25 PM 38.4817 -86.0775 153° Southeast 379 436 12,500 -1,623 Descending Indianapolis Center
Thu 11:09:26 PM 38.3925 -86.0272 156° South 356 410 10,900 -1,475 Descending Indianapolis Center
Thu 11:10:27 PM 38.3086 -85.9844 158° South 328 377 9,500 -1,426 Descending Indianapolis Center
Thu 11:11:28 PM 38.2369 -85.9186 144° Southeast 320 368 8,000 -1,426 Descending Indianapolis Center
Thu 11:12:29 PM 38.1647 -85.8561 146° Southeast 314 361 6,600 -1,463 Descending Indianapolis Center
Thu 11:13:31 PM 38.0875 -85.8217 161° South 304 350 5,000 -1,268 Descending Indianapolis Center
Thu 11:14:32 PM 38.0108 -85.8003 168° South 290 334 4,000 -492 Descending Indianapolis Center
Thu 11:15:33 PM 37.9481 -85.7647 156° South 271 312 4,000  Level Indianapolis Center
Thu 11:16:34 PM 37.9644 -85.6986 73° East 233 268 4,000 -246 Level Indianapolis Center
Thu 11:17:35 PM 38.0081 -85.6894 North 187 215 3,500 -590 Descending Indianapolis Center
Thu 11:18:36 PM 38.0514 -85.7017 347° North 168 193 2,800 -747 Descending Indianapolis Center
Thu 11:21:20 PM 38.1500 -85.7333 346° North 130 150 700 -768 Descending Louisville TRACON

Login

Don't have an account? Register now (free) for customized features, flight alerts, and more!